Weather History for Edenton, NC

Change the Weather History Date:

Sunday, November 17, 2013

  Actual Average Record
Temperature  
Mean Temperature 59 °F -  
Max Temperature 68 °F 63 °F 79 °F (1958)
Min Temperature 50 °F 41 °F 16 °F (1933)
Degree Days  
Heating Degree Days 6    
Growing Degree Days 9 (Base 50)    
Moisture  
Dew Point 58 °F    
Average Humidity 97    
Maximum Humidity 100    
Minimum Humidity 85    
Precipitation  
Precipitation 0.07 in - - ()
Sea Level Pressure  
Sea Level Pressure 30.10 in    
Wind  
Wind Speed 3 mph (SSE)    
Max Wind Speed 14 mph    
Max Gust Speed 18 mph    
Visibility 5 miles    
Events Fog , Rain    
Averages and records for this station are not official NWS values.
T = Trace of Precipitation, MM = Missing Value Source: NWS Daily Summary

Daily Weather History Graph

Daily Weather History Graph

Search for Another Location

Airport:

Trip Planner

Search our weather history database for the weather conditions in past years. The results will help you decide how hot, cold, wet, or windy it might be!

Date:

Astronomy

Nov. 17, 2013 Rise Set
Actual Time 6:45 AM EST 4:57 PM EST
Civil Twilight 6:17 AM EST 5:24 PM EST
Nautical Twilight 5:46 AM EST 5:55 PM EST
Astronomical Twilight 5:16 AM EST 6:26 PM EST
Moon 5:12 PM EST (11/17) 6:37 AM EST (11/17)
Length of Visible Light 11h 07m
Length of Day
10h 12m
Full, 100% of the Moon is Illuminated
Nov 17
Full
Nov 25
Last Quarter
Dec 2
New
Dec 9
First Quarter
Dec 17
Full

Hourly Weather History & Observations

Time (EST) Temp. Dew Point Humidity Pressure Visibility Wind Dir Wind Speed Gust Speed Precip Events Conditions
12:15 AM 52.0 °F 51.8 °F 99% 30.23 in 5.0 mi Calm Calm - N/A   Mist
12:35 AM 52.0 °F 51.8 °F 99% 30.22 in 5.0 mi North 3.5 mph - N/A   Mist
12:55 AM 51.8 °F 51.4 °F 99% 30.21 in 7.0 mi Calm Calm - N/A   Unknown
1:15 AM 52.2 °F 52.0 °F 99% 30.20 in 5.0 mi Calm Calm - N/A   Mist
1:35 AM 52.2 °F 52.0 °F 99% 30.19 in 5.0 mi Calm Calm - N/A   Mist
1:55 AM 51.4 °F 51.3 °F 99% 30.20 in 5.0 mi NNW 3.5 mph - N/A   Mist
2:15 AM 51.8 °F 51.4 °F 99% 30.19 in 5.0 mi Calm Calm - N/A   Mist
2:35 AM 51.8 °F 51.4 °F 99% 30.19 in 5.0 mi Calm Calm - N/A   Mist
2:55 AM 50.9 °F 50.5 °F 99% 30.18 in 5.0 mi North 4.6 mph - N/A   Mist
3:15 AM 51.8 °F 51.6 °F 99% 30.18 in 0.8 mi North 3.5 mph - N/A   Mist
3:35 AM 52.2 °F 52.0 °F 99% 30.17 in 0.2 mi North 4.6 mph - N/A Fog Fog
3:55 AM 52.7 °F 52.3 °F 99% 30.16 in 0.5 mi NNE 3.5 mph - N/A Fog Fog
4:15 AM 52.7 °F 52.3 °F 99% 30.16 in 0.2 mi NNE 4.6 mph - N/A Rain Light Rain
4:35 AM 52.3 °F 52.2 °F 99% 30.16 in 0.8 mi North 5.8 mph - N/A   Mist
4:55 AM 52.2 °F 52.0 °F 99% 30.16 in 0.8 mi North 4.6 mph - N/A   Mist
5:15 AM 51.8 °F 51.8 °F 100% 30.16 in 0.8 mi NNE 5.8 mph - N/A   Mist
5:35 AM 51.8 °F 51.8 °F 100% 30.16 in 0.5 mi NNE 3.5 mph - N/A Fog Fog
5:55 AM 51.8 °F 51.8 °F 100% 30.16 in 0.5 mi Calm Calm - N/A Fog Fog
6:15 AM 51.8 °F 51.6 °F 99% 30.16 in 0.5 mi Calm Calm - N/A Fog Fog
6:35 AM 52.0 °F 52.0 °F 100% 30.16 in 0.2 mi NE 3.5 mph - N/A Fog Fog
6:55 AM 52.3 °F 52.2 °F 99% 30.16 in 0.2 mi Calm Calm - N/A Fog Fog
7:15 AM 52.9 °F 52.7 °F 99% 30.16 in 0.2 mi Calm Calm - N/A Fog Fog
7:35 AM 53.2 °F 53.2 °F 100% 30.17 in 0.2 mi Calm Calm - N/A Fog Fog
7:55 AM 53.8 °F 53.8 °F 100% 30.17 in 0.2 mi ENE 3.5 mph - N/A Fog Fog
8:15 AM 54.3 °F 54.3 °F 100% 30.18 in 0.2 mi Calm Calm - N/A Fog Fog
8:35 AM 54.7 °F 54.7 °F 100% 30.19 in 0.5 mi Calm Calm - N/A Fog Fog
8:55 AM 55.6 °F 55.6 °F 100% 30.19 in 1.2 mi North 5.8 mph - N/A   Mist
9:15 AM 56.1 °F 55.9 °F 99% 30.20 in 3.0 mi Calm Calm - N/A   Mist
9:35 AM 56.7 °F 56.5 °F 99% 30.19 in 3.0 mi Calm Calm - N/A   Mist
9:55 AM 57.6 °F 57.4 °F 99% 30.19 in 1.8 mi Calm Calm - N/A   Mist
10:15 AM 58.8 °F 58.6 °F 99% 30.18 in 1.2 mi Calm Calm - N/A   Mist
10:35 AM 57.9 °F 57.7 °F 99% 30.18 in 0.5 mi South 4.6 mph - N/A Fog Fog
10:55 AM 57.9 °F 57.6 °F 99% 30.18 in 0.8 mi SSW 3.5 mph - N/A   Mist
11:15 AM 58.1 °F 57.9 °F 99% 30.16 in 0.5 mi SSW 3.5 mph - N/A Fog Fog
11:35 AM 58.1 °F 57.9 °F 99% 30.15 in 0.5 mi Calm Calm - N/A Fog Fog
11:55 AM 59.4 °F 59.2 °F 99% 30.13 in 0.8 mi Calm Calm - N/A   Mist
12:15 PM 60.8 °F 60.4 °F 99% 30.12 in 5.0 mi SSW 4.6 mph - N/A   Mist
12:35 PM 59.5 °F 59.2 °F 99% 30.12 in 1.2 mi South 3.5 mph - N/A   Mist
12:55 PM 60.1 °F 59.9 °F 99% 30.11 in 0.5 mi Calm Calm - N/A Fog Fog
1:15 PM 61.0 °F 60.6 °F 99% 30.10 in 7.0 mi Calm Calm - N/A   Unknown
1:35 PM 63.0 °F 62.4 °F 98% 30.09 in 10.0 mi South 4.6 mph - N/A   Unknown
1:55 PM 62.4 °F 61.5 °F 97% 30.07 in 1.2 mi Calm Calm - N/A   Mist
2:15 PM 64.4 °F 62.6 °F 94% 30.07 in 10.0 mi Calm Calm - N/A   Unknown
2:35 PM 66.7 °F 63.0 °F 88% 30.06 in 7.0 mi South 4.6 mph - N/A   Unknown
2:55 PM 68.2 °F 63.7 °F 85% 30.05 in 10.0 mi SSE 4.6 mph - N/A   Unknown
3:15 PM 68.2 °F 64.0 °F 87% 30.05 in 10.0 mi SSE 4.6 mph - N/A   Unknown
3:35 PM 67.3 °F 63.9 °F 89% 30.04 in 10.0 mi SE 3.5 mph - N/A   Unknown
3:55 PM 66.6 °F 63.1 °F 89% 30.02 in 10.0 mi SE 3.5 mph - N/A   Unknown
4:15 PM 65.7 °F 62.6 °F 90% 30.03 in 10.0 mi Calm Calm - N/A   Unknown
4:35 PM 65.1 °F 62.4 °F 91% 30.04 in 10.0 mi SSW 3.5 mph - N/A   Unknown
4:55 PM 64.0 °F 62.1 °F 93% 30.05 in 10.0 mi Calm Calm - N/A   Unknown
5:15 PM 63.0 °F 61.5 °F 95% 30.06 in 10.0 mi Calm Calm - N/A   Unknown
5:35 PM 61.2 °F 60.1 °F 96% 30.05 in 10.0 mi Calm Calm - N/A   Unknown
5:55 PM 62.1 °F 61.2 °F 97% 30.04 in 10.0 mi Calm Calm - N/A   Unknown
6:15 PM 62.1 °F 61.2 °F 97% 30.04 in 10.0 mi Calm Calm - N/A   Unknown
6:35 PM 62.2 °F 61.3 °F 97% 30.04 in 10.0 mi ESE 3.5 mph - N/A   Unknown
6:55 PM 62.1 °F 61.2 °F 97% 30.04 in 10.0 mi ESE 3.5 mph - N/A   Unknown
7:15 PM 62.4 °F 61.5 °F 97% 30.03 in 10.0 mi SE 4.6 mph - N/A   Unknown
7:35 PM 63.3 °F 62.4 °F 97% 30.02 in 10.0 mi SSE 5.8 mph - N/A   Unknown
7:55 PM 64.8 °F 63.7 °F 96% 29.99 in 10.0 mi SSE 8.1 mph - N/A   Unknown
8:15 PM 65.3 °F 64.0 °F 96% 30.00 in 10.0 mi South 5.8 mph - N/A   Unknown
8:35 PM 64.4 °F 63.5 °F 97% 30.00 in 10.0 mi South 6.9 mph - N/A   Unknown
8:55 PM 64.6 °F 63.7 °F 97% 29.99 in 10.0 mi South 6.9 mph - N/A   Unknown
9:15 PM 64.6 °F 63.9 °F 98% 29.99 in 4.0 mi South 6.9 mph - 0.05 in Rain Rain
9:35 PM 64.9 °F 64.4 °F 98% 29.98 in 7.0 mi South 8.1 mph - 0.05 in   Unknown
9:55 PM 65.3 °F 64.8 °F 98% 29.96 in 7.0 mi South 10.4 mph - 0.07 in Rain Rain
10:15 PM 64.9 °F 64.4 °F 98% 29.96 in 10.0 mi South 9.2 mph - N/A   Unknown
10:35 PM 65.3 °F 64.8 °F 98% 29.96 in 10.0 mi SSW 9.2 mph - N/A   Unknown
10:55 PM 65.8 °F 65.3 °F 98% 29.95 in 10.0 mi SSW 12.7 mph 18.4 mph N/A Rain Light Rain
11:15 PM 66.2 °F 65.3 °F 97% 29.95 in 10.0 mi SSW 13.8 mph - N/A   Unknown
11:35 PM 66.2 °F 64.8 °F 95% 29.94 in 10.0 mi SSW 11.5 mph 17.3 mph N/A   Unknown
11:55 PM 66.2 °F 64.9 °F 96% 29.94 in 10.0 mi SSW 10.4 mph - N/A Rain Light Rain